Time;durP1;ratioP1;P1;durP2;ratioP2;P2;SDS_P1;SDS_P2;PMS_P1;PMS_P2;Temp;Humidity;BMP_temperature;BMP_pressure;BME280_temperature;BME280_humidity;BME280_pressure;Samples;Min_cycle;Max_cycle;Signal;HPM_P1;HPM_P2
2022/07/28 00:00:34;;;;;;;36.05;34.15;;;;;;;;;;5040681;28;20111;-59
2022/07/28 00:02:59;;;;;;;38.45;36.45;;;;;;;;;;5040716;28;20029;-58
2022/07/28 00:05:25;;;;;;;33.47;31.77;;;;;;;;;;5041160;28;20029;-59
2022/07/28 00:07:50;;;;;;;30.67;29.08;;;;;;;;;;5040195;28;20029;-59
2022/07/28 00:10:16;;;;;;;39.03;37.03;;;;;;;;;;5041329;28;20071;-59
2022/07/28 00:12:42;;;;;;;32.10;30.42;;;;;;;;;;5041614;28;20378;-58
2022/07/28 00:15:08;;;;;;;33.63;31.92;;;;;;;;;;5037039;28;20029;-58
2022/07/28 00:17:33;;;;;;;39.28;37.17;;;;;;;;;;5039893;28;20045;-59
2022/07/28 00:19:59;;;;;;;34.90;33.10;;;;;;;;;;5038235;28;20428;-59
2022/07/28 00:22:24;;;;;;;34.28;32.50;;;;;;;;;;5037376;28;20079;-59
2022/07/28 00:24:49;;;;;;;34.95;33.15;;;;;;;;;;5038797;28;20041;-59
2022/07/28 00:27:16;;;;;;;29.73;28.17;;;;;;;;;;5036057;28;20021;-58
2022/07/28 00:29:42;;;;;;;26.05;24.65;;;;;;;;;;5040886;28;20600;-59
2022/07/28 00:32:07;;;;;;;27.98;26.50;;;;;;;;;;5041116;28;20448;-59
2022/07/28 00:34:32;;;;;;;28.10;26.60;;;;;;;;;;5034805;28;20079;-58
2022/07/28 00:36:58;;;;;;;26.63;25.23;;;;;;;;;;5037918;28;20025;-58
2022/07/28 00:39:23;;;;;;;30.80;29.20;;;;;;;;;;5038873;28;20513;-58
2022/07/28 00:41:48;;;;;;;30.58;28.98;;;;;;;;;;5037846;28;20903;-58
2022/07/28 00:44:14;;;;;;;28.38;26.77;;;;;;;;;;5039768;28;20474;-58
2022/07/28 00:46:39;;;;;;;33.75;32.03;;;;;;;;;;5036427;28;20056;-58
2022/07/28 00:49:05;;;;;;;32.15;30.38;;;;;;;;;;5039392;28;20041;-59
2022/07/28 00:51:31;;;;;;;33.92;32.15;;;;;;;;;;5037639;28;20044;-59
2022/07/28 00:53:56;;;;;;;31.77;30.15;;;;;;;;;;5041589;28;20111;-58
2022/07/28 00:56:22;;;;;;;34.38;32.58;;;;;;;;;;5043723;28;20040;-58
2022/07/28 00:58:48;;;;;;;33.10;31.38;;;;;;;;;;5040356;28;20029;-58
2022/07/28 01:01:16;;;;;;;29.70;28.17;;;;;;;;;;5043300;28;20043;-59
2022/07/28 01:03:43;;;;;;;34.92;33.10;;;;;;;;;;5042071;28;20373;-59
2022/07/28 01:06:24;;;;;;;33.50;31.77;;;;;;;;;;5041804;28;20135;-58
2022/07/28 01:09:21;;;;;;;32.90;31.17;;;;;;;;;;5045088;28;20037;-58
2022/07/28 01:12:09;;;;;;;38.15;36.20;;;;;;;;;;5038102;28;20485;-59
2022/07/28 01:14:46;;;;;;;33.95;32.20;;;;;;;;;;5035154;28;20048;-58
2022/07/28 01:17:31;;;;;;;36.53;34.63;;;;;;;;;;5044908;28;20178;-59
2022/07/28 01:20:17;;;;;;;36.72;34.80;;;;;;;;;;5039936;28;20033;-58
2022/07/28 01:23:03;;;;;;;34.83;33.00;;;;;;;;;;5038188;28;20089;-59
2022/07/28 01:25:48;;;;;;;38.78;36.78;;;;;;;;;;5036854;28;20072;-59
2022/07/28 01:28:35;;;;;;;42.80;40.55;;;;;;;;;;5039757;28;20656;-59
2022/07/28 01:31:06;;;;;;;36.35;34.45;;;;;;;;;;5043982;28;20053;-59
2022/07/28 01:33:37;;;;;;;38.45;36.45;;;;;;;;;;5039121;28;20026;-58
2022/07/28 01:36:08;;;;;;;41.92;39.80;;;;;;;;;;5038837;28;20025;-58
2022/07/28 01:38:35;;;;;;;46.20;43.78;;;;;;;;;;5041885;28;20047;-58
2022/07/28 01:41:03;;;;;;;45.30;42.97;;;;;;;;;;5039275;28;20057;-58
2022/07/28 01:43:33;;;;;;;41.42;39.33;;;;;;;;;;5041631;28;20032;-58
2022/07/28 01:46:00;;;;;;;43.97;41.78;;;;;;;;;;5036590;28;20082;-58
2022/07/28 01:48:27;;;;;;;49.05;46.55;;;;;;;;;;5037789;28;20025;-58
2022/07/28 01:50:55;;;;;;;47.00;44.63;;;;;;;;;;5041109;28;20394;-58
2022/07/28 01:53:22;;;;;;;38.63;36.65;;;;;;;;;;5041537;28;20402;-58
2022/07/28 01:55:51;;;;;;;41.60;39.50;;;;;;;;;;5037811;28;20466;-59
2022/07/28 01:58:20;;;;;;;40.88;38.78;;;;;;;;;;5037787;28;20036;-58
2022/07/28 02:00:50;;;;;;;38.22;36.25;;;;;;;;;;5038221;28;20169;-58
2022/07/28 02:03:17;;;;;;;41.92;39.83;;;;;;;;;;5038143;28;20377;-58
2022/07/28 02:05:44;;;;;;;44.53;42.28;;;;;;;;;;5042898;28;20112;-58
2022/07/28 02:08:12;;;;;;;47.45;45.05;;;;;;;;;;5040516;28;20039;-58
2022/07/28 02:10:41;;;;;;;55.05;51.78;;;;;;;;;;5039603;28;20510;-58
2022/07/28 02:13:08;;;;;;;55.88;52.85;;;;;;;;;;5042383;28;20032;-58
2022/07/28 02:15:36;;;;;;;52.85;50.15;;;;;;;;;;5041853;28;20398;-58
2022/07/28 02:18:02;;;;;;;54.67;51.92;;;;;;;;;;5043936;28;20064;-58
2022/07/28 02:20:28;;;;;;;52.75;50.10;;;;;;;;;;5045253;28;20500;-59
2022/07/28 02:22:55;;;;;;;54.25;51.53;;;;;;;;;;5041695;28;20080;-58
2022/07/28 02:25:20;;;;;;;48.85;46.35;;;;;;;;;;5042231;28;20028;-58
2022/07/28 02:27:51;;;;;;;52.78;50.08;;;;;;;;;;5041040;28;20438;-58
2022/07/28 02:30:33;;;;;;;48.13;45.70;;;;;;;;;;5045878;28;20028;-59
2022/07/28 02:33:06;;;;;;;49.38;46.88;;;;;;;;;;5031809;28;20043;-59
2022/07/28 02:35:44;;;;;;;52.78;50.13;;;;;;;;;;5036943;28;20236;-58
2022/07/28 02:38:18;;;;;;;53.45;50.75;;;;;;;;;;5042914;28;20175;-58
2022/07/28 02:40:45;;;;;;;52.55;49.90;;;;;;;;;;5041588;28;20033;-58
2022/07/28 02:43:14;;;;;;;51.72;49.13;;;;;;;;;;5043067;28;20479;-58
2022/07/28 02:45:43;;;;;;;51.33;48.73;;;;;;;;;;5004204;28;1053811;-59
2022/07/28 02:48:12;;;;;;;53.70;51.00;;;;;;;;;;5049036;28;20324;-58
2022/07/28 02:50:41;;;;;;;53.53;50.83;;;;;;;;;;5041138;28;20135;-59
2022/07/28 02:53:07;;;;;;;55.97;53.13;;;;;;;;;;5043663;28;20025;-59
2022/07/28 02:55:34;;;;;;;53.92;51.22;;;;;;;;;;5042030;28;20048;-58
2022/07/28 02:58:00;;;;;;;63.40;60.20;;;;;;;;;;5038667;28;20029;-58
2022/07/28 03:00:27;;;;;;;64.00;60.80;;;;;;;;;;5043199;28;20462;-59
2022/07/28 03:02:54;;;;;;;69.50;66.03;;;;;;;;;;5044468;28;20106;-58
2022/07/28 03:05:20;;;;;;;71.93;68.32;;;;;;;;;;5040574;28;20206;-58
2022/07/28 03:07:51;;;;;;;74.18;70.47;;;;;;;;;;5039620;28;20410;-59
2022/07/28 03:10:20;;;;;;;;;;;;;;;;;;5039013;28;20033;-59
2022/07/28 03:12:45;;;;;;;55.67;52.88;;;;;;;;;;5037526;28;19928;-58
2022/07/28 03:15:11;;;;;;;59.03;56.05;;;;;;;;;;5039946;28;20029;-58
2022/07/28 03:17:36;;;;;;;40.67;38.58;;;;;;;;;;5037965;28;20025;-58
2022/07/28 03:20:02;;;;;;;52.95;50.28;;;;;;;;;;5043542;28;20044;-59
2022/07/28 03:22:27;;;;;;;58.55;55.60;;;;;;;;;;5061607;28;20056;-61
2022/07/28 03:24:55;;;;;;;72.75;69.10;;;;;;;;;;5040980;28;20024;-59
2022/07/28 03:27:21;;;;;;;62.50;59.33;;;;;;;;;;5038441;28;20123;-59
2022/07/28 03:30:01;;;;;;;60.42;57.33;;;;;;;;;;5043472;28;20122;-59
2022/07/28 03:32:29;;;;;;;56.22;53.35;;;;;;;;;;5047806;28;20033;-59
2022/07/28 03:34:55;;;;;;;39.22;37.22;;;;;;;;;;5040210;28;20075;-59
2022/07/28 03:37:27;;;;;;;59.28;56.28;;;;;;;;;;5038374;28;20033;-59
2022/07/28 03:39:55;;;;;;;63.78;60.53;;;;;;;;;;5037693;28;20192;-59
2022/07/28 03:42:21;;;;;;;45.20;42.88;;;;;;;;;;5036767;28;20025;-59
2022/07/28 03:44:47;;;;;;;61.35;58.25;;;;;;;;;;5041815;28;20363;-59
2022/07/28 03:47:14;;;;;;;49.78;47.28;;;;;;;;;;5042336;28;20026;-59
2022/07/28 03:49:39;;;;;;;60.58;57.53;;;;;;;;;;5038376;28;20124;-59
2022/07/28 03:52:05;;;;;;;70.90;67.35;;;;;;;;;;5036681;28;20104;-59
2022/07/28 03:54:30;;;;;;;45.97;43.65;;;;;;;;;;5040806;28;20025;-59
2022/07/28 03:56:56;;;;;;;57.17;54.30;;;;;;;;;;5037977;28;20036;-59
2022/07/28 03:59:22;;;;;;;46.63;44.20;;;;;;;;;;5035748;28;20024;-59
2022/07/28 04:01:47;;;;;;;66.47;63.17;;;;;;;;;;5038741;28;20044;-59
2022/07/28 04:04:13;;;;;;;55.72;52.92;;;;;;;;;;5040304;28;20033;-59
2022/07/28 04:06:38;;;;;;;55.70;52.92;;;;;;;;;;5036920;28;20037;-59
2022/07/28 04:09:04;;;;;;;57.78;54.85;;;;;;;;;;5035418;28;20347;-59
2022/07/28 04:11:29;;;;;;;64.45;60.88;;;;;;;;;;5038489;28;20122;-59
2022/07/28 04:13:55;;;;;;;55.20;52.40;;;;;;;;;;5038981;28;20481;-60
2022/07/28 04:16:21;;;;;;;60.60;57.53;;;;;;;;;;5037422;28;20039;-59
2022/07/28 04:18:46;;;;;;;59.97;56.97;;;;;;;;;;5039161;28;20420;-59
2022/07/28 04:21:12;;;;;;;61.03;57.95;;;;;;;;;;5045024;28;20178;-59
2022/07/28 04:23:38;;;;;;;55.35;52.58;;;;;;;;;;5040477;28;20088;-59
2022/07/28 04:26:03;;;;;;;49.28;46.78;;;;;;;;;;5036772;28;20114;-59
2022/07/28 04:28:28;;;;;;;34.70;32.90;;;;;;;;;;5041001;28;20033;-59
2022/07/28 04:30:54;;;;;;;44.42;42.17;;;;;;;;;;5040660;28;20112;-59
2022/07/28 04:33:19;;;;;;;47.72;45.30;;;;;;;;;;5038181;28;20454;-59
2022/07/28 04:35:45;;;;;;;49.00;46.53;;;;;;;;;;5037442;28;20518;-59
2022/07/28 04:38:13;;;;;;;53.08;50.40;;;;;;;;;;5035241;28;20029;-58
2022/07/28 04:40:40;;;;;;;40.75;38.65;;;;;;;;;;5034103;28;20044;-59
2022/07/28 04:43:06;;;;;;;45.92;43.47;;;;;;;;;;5032863;28;20304;-58
2022/07/28 04:45:31;;;;;;;41.10;39.00;;;;;;;;;;5036517;28;20099;-59
2022/07/28 04:47:57;;;;;;;44.45;42.17;;;;;;;;;;5039835;28;20021;-58
2022/07/28 04:50:22;;;;;;;29.42;27.90;;;;;;;;;;5040252;28;20032;-58
2022/07/28 04:52:48;;;;;;;24.60;23.30;;;;;;;;;;5037135;28;20370;-59
2022/07/28 04:55:14;;;;;;;52.92;50.22;;;;;;;;;;5040338;28;20174;-58
2022/07/28 04:57:40;;;;;;;39.33;37.22;;;;;;;;;;5035829;28;20115;-58
2022/07/28 05:00:11;;;;;;;43.03;40.80;;;;;;;;;;5033751;28;20100;-58
2022/07/28 05:02:37;;;;;;;44.75;42.33;;;;;;;;;;5037579;28;20837;-58
2022/07/28 05:05:02;;;;;;;23.92;22.63;;;;;;;;;;5041478;28;20218;-58
2022/07/28 05:07:28;;;;;;;30.02;28.42;;;;;;;;;;5040359;28;20257;-66
2022/07/28 05:09:53;;;;;;;32.63;30.95;;;;;;;;;;5038472;28;20025;-66
2022/07/28 05:12:18;;;;;;;23.75;22.45;;;;;;;;;;5032415;28;20080;-66
2022/07/28 05:14:44;;;;;;;28.90;27.40;;;;;;;;;;5035338;28;20028;-66
2022/07/28 05:17:09;;;;;;;37.25;35.33;;;;;;;;;;5034760;28;20383;-66
2022/07/28 05:19:34;;;;;;;22.63;21.40;;;;;;;;;;5036515;28;20501;-66
2022/07/28 05:22:00;;;;;;;28.10;26.48;;;;;;;;;;5039283;28;20026;-66
2022/07/28 05:24:25;;;;;;;27.63;26.17;;;;;;;;;;5040243;28;20033;-66
2022/07/28 05:26:50;;;;;;;18.05;17.05;;;;;;;;;;5035107;28;20033;-66
2022/07/28 05:29:16;;;;;;;28.27;26.80;;;;;;;;;;5037105;28;20292;-65
2022/07/28 05:31:41;;;;;;;34.20;32.40;;;;;;;;;;5042908;28;20041;-66
2022/07/28 05:34:06;;;;;;;36.78;34.88;;;;;;;;;;5038591;28;20052;-65
2022/07/28 05:36:32;;;;;;;51.13;48.53;;;;;;;;;;5040134;28;20029;-65
2022/07/28 05:38:57;;;;;;;42.72;40.53;;;;;;;;;;5035259;28;20041;-66
2022/07/28 05:41:23;;;;;;;58.50;55.55;;;;;;;;;;5038055;28;20063;-65
2022/07/28 05:43:48;;;;;;;32.15;30.48;;;;;;;;;;5040352;28;20028;-67
2022/07/28 05:46:13;;;;;;;54.95;52.17;;;;;;;;;;5042995;28;20046;-66
2022/07/28 05:48:39;;;;;;;48.95;46.47;;;;;;;;;;5040885;28;20099;-65
2022/07/28 05:51:04;;;;;;;34.63;32.83;;;;;;;;;;5041270;28;20418;-65
2022/07/28 05:53:30;;;;;;;47.65;45.20;;;;;;;;;;5039890;28;20137;-66
2022/07/28 05:55:55;;;;;;;65.38;62.08;;;;;;;;;;5040894;28;20033;-66
2022/07/28 05:58:21;;;;;;;67.22;63.83;;;;;;;;;;5039623;28;20469;-66
2022/07/28 06:00:47;;;;;;;53.35;50.63;;;;;;;;;;5042791;28;20521;-66
2022/07/28 06:03:13;;;;;;;91.85;87.25;;;;;;;;;;5044918;28;20104;-67
2022/07/28 06:05:38;;;;;;;89.63;85.15;;;;;;;;;;5042703;28;20060;-66
2022/07/28 06:08:03;;;;;;;52.63;49.95;;;;;;;;;;5037462;28;20116;-66
2022/07/28 06:13:14;;;;;;;57.25;54.35;;;;;;;;;;5031710;28;20635;-66
2022/07/28 06:15:39;;;;;;;61.47;58.38;;;;;;;;;;5040955;28;20040;-67
2022/07/28 06:18:05;;;;;;;68.68;65.20;;;;;;;;;;5036425;28;20110;-67
2022/07/28 06:20:30;;;;;;;63.35;59.95;;;;;;;;;;5039943;28;20837;-66
2022/07/28 06:22:56;;;;;;;58.85;55.88;;;;;;;;;;5037149;28;20533;-66
2022/07/28 06:25:24;;;;;;;59.55;56.35;;;;;;;;;;5039201;28;20029;-66
2022/07/28 06:27:51;;;;;;;45.08;42.75;;;;;;;;;;5038699;28;20041;-66
2022/07/28 06:30:17;;;;;;;68.50;64.93;;;;;;;;;;5040638;28;20474;-66
2022/07/28 06:32:44;;;;;;;62.83;59.67;;;;;;;;;;5037311;28;20802;-66
2022/07/28 06:35:13;;;;;;;66.20;62.90;;;;;;;;;;5036298;28;20040;-64
2022/07/28 06:37:39;;;;;;;52.22;49.60;;;;;;;;;;5037505;28;20413;-65
2022/07/28 06:40:06;;;;;;;40.78;38.67;;;;;;;;;;5036775;28;20562;-66
2022/07/28 06:42:31;;;;;;;39.53;37.50;;;;;;;;;;5035234;28;20459;-65
2022/07/28 06:44:56;;;;;;;39.97;37.92;;;;;;;;;;5035979;28;20039;-65
2022/07/28 06:47:22;;;;;;;42.08;39.88;;;;;;;;;;5037205;28;20040;-66
2022/07/28 06:49:47;;;;;;;40.53;38.42;;;;;;;;;;5036490;28;20048;-66
2022/07/28 06:52:12;;;;;;;36.40;34.50;;;;;;;;;;5037724;28;20035;-66
2022/07/28 06:54:38;;;;;;;35.28;33.47;;;;;;;;;;5039926;28;20043;-66
2022/07/28 06:57:03;;;;;;;39.13;37.08;;;;;;;;;;5040571;28;20037;-66
2022/07/28 06:59:29;;;;;;;38.97;36.97;;;;;;;;;;5038897;28;20186;-66
2022/07/28 07:02:00;;;;;;;34.10;32.35;;;;;;;;;;5040910;28;20032;-66
2022/07/28 07:04:28;;;;;;;48.95;46.45;;;;;;;;;;5046051;28;20367;-66
2022/07/28 07:06:54;;;;;;;46.58;44.08;;;;;;;;;;5047081;28;20033;-66
2022/07/28 07:09:19;;;;;;;53.20;50.50;;;;;;;;;;5036804;28;20029;-66
2022/07/28 07:11:44;;;;;;;66.82;63.50;;;;;;;;;;5040205;28;20057;-66
2022/07/28 07:14:10;;;;;;;63.38;60.17;;;;;;;;;;5041493;28;20063;-66
2022/07/28 07:16:35;;;;;;;71.95;68.35;;;;;;;;;;5041066;28;20383;-66
2022/07/28 07:19:00;;;;;;;72.18;68.53;;;;;;;;;;5036983;28;20072;-67
2022/07/28 07:21:26;;;;;;;69.22;65.78;;;;;;;;;;5033941;28;20035;-66
2022/07/28 07:23:51;;;;;;;68.63;65.22;;;;;;;;;;5039828;28;20119;-64
2022/07/28 07:26:16;;;;;;;71.75;68.20;;;;;;;;;;5037206;28;20661;-66
2022/07/28 07:28:42;;;;;;;76.90;73.05;;;;;;;;;;5034854;28;20052;-65
2022/07/28 07:31:07;;;;;;;72.07;68.47;;;;;;;;;;5040729;28;20426;-67
2022/07/28 07:33:32;;;;;;;76.40;72.53;;;;;;;;;;5040362;28;20126;-66
2022/07/28 07:35:58;;;;;;;77.20;73.38;;;;;;;;;;5038901;28;20064;-66
2022/07/28 07:38:23;;;;;;;90.45;86.03;;;;;;;;;;5039695;28;20081;-66
2022/07/28 07:40:50;;;;;;;78.35;74.38;;;;;;;;;;5037458;28;20040;-66
2022/07/28 07:43:16;;;;;;;96.38;91.65;;;;;;;;;;5035907;28;20072;-66
2022/07/28 07:45:42;;;;;;;88.30;83.93;;;;;;;;;;5036368;28;20033;-66
2022/07/28 07:48:07;;;;;;;110.93;105.45;;;;;;;;;;5040013;28;20056;-65
2022/07/28 07:50:33;;;;;;;107.72;102.40;;;;;;;;;;5037014;28;20028;-65
2022/07/28 07:52:59;;;;;;;104.07;98.95;;;;;;;;;;5038062;28;20124;-65
2022/07/28 07:55:25;;;;;;;107.03;101.78;;;;;;;;;;5035182;28;20120;-65
2022/07/28 07:57:50;;;;;;;104.82;99.68;;;;;;;;;;5039089;28;20025;-65
2022/07/28 08:00:16;;;;;;;136.52;129.80;;;;;;;;;;5037951;28;20029;-64
2022/07/28 08:02:42;;;;;;;93.85;89.20;;;;;;;;;;5036946;28;20033;-65
2022/07/28 08:05:08;;;;;;;153.65;146.10;;;;;;;;;;5041068;28;20035;-64
2022/07/28 08:07:34;;;;;;;153.27;145.77;;;;;;;;;;5038722;28;20037;-65
2022/07/28 08:09:59;;;;;;;143.85;136.80;;;;;;;;;;5037102;28;20120;-65
2022/07/28 08:12:25;;;;;;;162.63;154.65;;;;;;;;;;5039587;28;20087;-65
2022/07/28 08:14:50;;;;;;;160.52;152.60;;;;;;;;;;5039952;28;20039;-65
2022/07/28 08:17:15;;;;;;;172.88;164.43;;;;;;;;;;5036091;28;20636;-66
2022/07/28 08:19:41;;;;;;;165.77;157.02;;;;;;;;;;5040715;28;20116;-65
2022/07/28 08:22:06;;;;;;;150.27;142.88;;;;;;;;;;5037269;28;20032;-65
2022/07/28 08:24:31;;;;;;;162.40;154.40;;;;;;;;;;5040102;28;20041;-65
2022/07/28 08:26:57;;;;;;;158.88;151.07;;;;;;;;;;5033826;28;20116;-65
2022/07/28 08:29:22;;;;;;;158.02;150.27;;;;;;;;;;5036908;28;20029;-65
2022/07/28 08:31:48;;;;;;;154.75;147.15;;;;;;;;;;5034770;28;20108;-65
2022/07/28 08:34:13;;;;;;;166.82;158.65;;;;;;;;;;5043346;28;20058;-65
2022/07/28 08:36:38;;;;;;;166.18;158.02;;;;;;;;;;5038905;28;20661;-64
2022/07/28 08:39:04;;;;;;;165.45;157.35;;;;;;;;;;5040152;28;20035;-64
2022/07/28 08:41:51;;;;;;;167.85;159.65;;;;;;;;;;5038410;28;20086;-64
2022/07/28 08:44:22;;;;;;;179.48;170.75;;;;;;;;;;5020714;28;20056;-64
2022/07/28 08:46:48;;;;;;;154.25;146.52;;;;;;;;;;5038781;28;20039;-65
2022/07/28 08:49:14;;;;;;;163.45;155.45;;;;;;;;;;5038275;28;20108;-66
2022/07/28 08:51:40;;;;;;;174.05;165.55;;;;;;;;;;5038937;28;20357;-56
2022/07/28 08:54:08;;;;;;;179.02;170.30;;;;;;;;;;5036548;28;20052;-57
2022/07/28 08:56:40;;;;;;;163.65;155.65;;;;;;;;;;5034656;28;20594;-57
2022/07/28 08:59:06;;;;;;;153.32;145.77;;;;;;;;;;5034609;28;20025;-57
2022/07/28 09:01:32;;;;;;;172.88;164.40;;;;;;;;;;5038528;28;20041;-57
2022/07/28 09:03:58;;;;;;;154.35;146.75;;;;;;;;;;5033867;28;20033;-58
2022/07/28 09:06:24;;;;;;;160.00;152.15;;;;;;;;;;5033543;28;20036;-59
2022/07/28 09:08:49;;;;;;;147.02;139.75;;;;;;;;;;5034067;28;20040;-58
2022/07/28 09:11:15;;;;;;;145.90;138.68;;;;;;;;;;5031978;28;20033;-58
2022/07/28 09:13:40;;;;;;;146.60;139.38;;;;;;;;;;5035501;28;20055;-58
2022/07/28 09:16:06;;;;;;;151.18;143.63;;;;;;;;;;5037875;28;20036;-58
2022/07/28 09:18:31;;;;;;;129.48;123.13;;;;;;;;;;5041088;28;20477;-58
2022/07/28 09:20:56;;;;;;;146.55;139.25;;;;;;;;;;5038444;28;20064;-58
2022/07/28 09:23:22;;;;;;;129.55;123.15;;;;;;;;;;5039075;28;20025;-58
2022/07/28 09:25:47;;;;;;;127.22;120.95;;;;;;;;;;5040698;28;20107;-58
2022/07/28 09:28:15;;;;;;;139.85;132.95;;;;;;;;;;5037881;28;20431;-58
2022/07/28 09:30:42;;;;;;;120.38;114.47;;;;;;;;;;5037497;28;20053;-58
2022/07/28 09:33:26;;;;;;;140.60;133.70;;;;;;;;;;5041160;28;20872;-58
2022/07/28 09:35:57;;;;;;;113.60;108.03;;;;;;;;;;5047038;28;20073;-58
2022/07/28 09:38:24;;;;;;;105.75;100.53;;;;;;;;;;5042293;28;20025;-58
2022/07/28 09:40:57;;;;;;;122.93;116.70;;;;;;;;;;5038997;28;20061;-58
2022/07/28 09:43:41;;;;;;;136.82;130.10;;;;;;;;;;5043754;28;20037;-58
2022/07/28 09:46:07;;;;;;;135.63;128.93;;;;;;;;;;5037189;28;20109;-59
2022/07/28 09:48:34;;;;;;;68.28;64.85;;;;;;;;;;5039638;28;20516;-59
2022/07/28 09:51:13;;;;;;;82.95;78.85;;;;;;;;;;5039515;28;20029;-58
2022/07/28 09:53:39;;;;;;;59.25;56.28;;;;;;;;;;5038446;28;20612;-58
2022/07/28 09:56:06;;;;;;;51.95;49.33;;;;;;;;;;5042245;28;20030;-58
2022/07/28 09:58:31;;;;;;;46.70;44.35;;;;;;;;;;5042046;28;20021;-59
2022/07/28 10:01:07;;;;;;;45.75;43.45;;;;;;;;;;5037715;28;20039;-58
2022/07/28 10:03:34;;;;;;;57.90;54.08;;;;;;;;;;5039650;28;20044;-58
2022/07/28 10:06:04;;;;;;;34.53;32.72;;;;;;;;;;5042982;28;20029;-57
2022/07/28 10:08:41;;;;;;;57.35;54.47;;;;;;;;;;5040243;28;20051;-58
2022/07/28 10:11:08;;;;;;;38.50;36.47;;;;;;;;;;5043985;28;20029;-57
2022/07/28 10:13:34;;;;;;;31.48;29.88;;;;;;;;;;5039484;28;20021;-58
2022/07/28 10:16:11;;;;;;;31.67;30.08;;;;;;;;;;5040823;28;20033;-58
2022/07/28 10:18:39;;;;;;;35.28;33.45;;;;;;;;;;5047210;28;20125;-58
2022/07/28 10:21:12;;;;;;;35.30;33.50;;;;;;;;;;5043806;28;20119;-57
2022/07/28 10:23:41;;;;;;;31.77;30.10;;;;;;;;;;5043040;28;20025;-57
2022/07/28 10:26:09;;;;;;;40.80;38.70;;;;;;;;;;5039229;28;20087;-57
2022/07/28 10:28:37;;;;;;;33.25;31.55;;;;;;;;;;5038011;28;20373;-57
2022/07/28 10:31:04;;;;;;;32.58;30.90;;;;;;;;;;5054374;28;20540;-58
2022/07/28 10:33:31;;;;;;;46.10;43.78;;;;;;;;;;5039344;28;20048;-58
2022/07/28 10:35:59;;;;;;;32.22;30.52;;;;;;;;;;5042018;28;20029;-57
2022/07/28 10:38:28;;;;;;;40.00;37.95;;;;;;;;;;5037169;28;20073;-58
2022/07/28 10:40:55;;;;;;;33.03;31.33;;;;;;;;;;5040109;28;21185;-58
2022/07/28 10:43:22;;;;;;;42.55;40.38;;;;;;;;;;5044868;28;20025;-57
2022/07/28 10:45:47;;;;;;;44.70;42.45;;;;;;;;;;5040802;28;20037;-57
2022/07/28 10:48:14;;;;;;;58.67;55.72;;;;;;;;;;5043546;28;20029;-58
2022/07/28 10:50:39;;;;;;;93.60;89.00;;;;;;;;;;5043153;28;20500;-57
2022/07/28 10:53:06;;;;;;;101.75;96.72;;;;;;;;;;5049053;28;20024;-57
2022/07/28 10:55:38;;;;;;;115.97;110.25;;;;;;;;;;5041002;28;20017;-59
2022/07/28 10:58:23;;;;;;;90.45;85.97;;;;;;;;;;5040928;28;20587;-58
2022/07/28 11:00:51;;;;;;;127.30;121.03;;;;;;;;;;5039512;28;20057;-57
2022/07/28 11:03:34;;;;;;;135.52;128.85;;;;;;;;;;5042967;28;20021;-57
2022/07/28 11:06:29;;;;;;;130.80;124.35;;;;;;;;;;5036907;28;20051;-58
2022/07/28 11:09:16;;;;;;;137.95;131.18;;;;;;;;;;5041044;28;20032;-58
2022/07/28 11:11:54;;;;;;;109.38;103.97;;;;;;;;;;5044782;28;20032;-57
2022/07/28 11:14:23;;;;;;;116.00;110.28;;;;;;;;;;5036843;28;20029;-58
2022/07/28 11:17:03;;;;;;;109.05;103.68;;;;;;;;;;5037695;28;20060;-57
2022/07/28 11:19:50;;;;;;;133.55;126.95;;;;;;;;;;5038489;28;20035;-58
2022/07/28 11:22:17;;;;;;;82.10;78.00;;;;;;;;;;5040172;28;20564;-58
2022/07/28 11:24:57;;;;;;;71.72;68.15;;;;;;;;;;5036386;28;20024;-58
2022/07/28 11:27:48;;;;;;;85.63;81.35;;;;;;;;;;5037923;28;20040;-58
2022/07/28 11:30:45;;;;;;;74.80;71.10;;;;;;;;;;5036472;28;20122;-58
2022/07/28 11:33:11;;;;;;;82.78;78.68;;;;;;;;;;5033251;28;20037;-59
2022/07/28 11:35:40;;;;;;;86.68;82.38;;;;;;;;;;5035861;28;20091;-59
2022/07/28 11:38:07;;;;;;;95.97;91.25;;;;;;;;;;5038541;28;20096;-59
2022/07/28 11:40:44;;;;;;;86.10;81.85;;;;;;;;;;5037701;28;20035;-58
2022/07/28 11:43:22;;;;;;;107.28;101.97;;;;;;;;;;5040498;28;20037;-58
2022/07/28 11:46:00;;;;;;;104.85;99.68;;;;;;;;;;5036812;28;20029;-58
2022/07/28 11:48:28;;;;;;;107.47;102.18;;;;;;;;;;5036867;28;20017;-58
2022/07/28 11:51:03;;;;;;;116.10;110.43;;;;;;;;;;5039791;28;20071;-58
2022/07/28 11:53:40;;;;;;;110.50;105.03;;;;;;;;;;5039262;28;20032;-58
2022/07/28 11:56:08;;;;;;;124.28;118.18;;;;;;;;;;5037774;28;20021;-57
2022/07/28 11:58:34;;;;;;;121.82;115.72;;;;;;;;;;5039475;28;20033;-58
2022/07/28 12:01:11;;;;;;;109.40;104.00;;;;;;;;;;5036126;28;20049;-58
2022/07/28 12:03:39;;;;;;;127.40;121.10;;;;;;;;;;5036115;28;20072;-58
2022/07/28 12:06:05;;;;;;;112.80;107.20;;;;;;;;;;5035230;28;20429;-58
2022/07/28 12:08:57;;;;;;;118.85;112.97;;;;;;;;;;5040900;28;20085;-57
2022/07/28 12:11:25;;;;;;;120.28;114.35;;;;;;;;;;5037791;28;20110;-57
2022/07/28 12:13:58;;;;;;;109.68;104.30;;;;;;;;;;5037444;28;20040;-57
2022/07/28 12:16:27;;;;;;;129.43;123.05;;;;;;;;;;5037373;28;20095;-57
2022/07/28 12:18:53;;;;;;;99.67;94.73;;;;;;;;;;5038405;28;20478;-58
2022/07/28 12:21:54;;;;;;;122.20;116.20;;;;;;;;;;5036673;28;20275;-58
2022/07/28 12:24:30;;;;;;;129.07;122.68;;;;;;;;;;5016539;28;20196;-58
2022/07/28 12:26:58;;;;;;;101.97;96.93;;;;;;;;;;5035734;28;20426;-59
2022/07/28 12:29:28;;;;;;;103.25;98.15;;;;;;;;;;5040094;28;20029;-57
2022/07/28 12:32:05;;;;;;;112.28;106.75;;;;;;;;;;5039174;28;20733;-58
2022/07/28 12:34:36;;;;;;;121.10;115.13;;;;;;;;;;5039428;28;20112;-58
2022/07/28 12:37:04;;;;;;;119.05;113.20;;;;;;;;;;5040122;28;20025;-58
2022/07/28 12:39:33;;;;;;;117.03;111.25;;;;;;;;;;5033668;28;20069;-58
2022/07/28 12:42:06;;;;;;;122.47;116.43;;;;;;;;;;5035400;28;20491;-59
2022/07/28 12:44:40;;;;;;;135.00;128.35;;;;;;;;;;5036282;28;20038;-57
2022/07/28 12:47:07;;;;;;;129.35;122.95;;;;;;;;;;5038017;28;20061;-57
2022/07/28 12:49:34;;;;;;;120.20;114.25;;;;;;;;;;5039306;28;20025;-57
2022/07/28 12:52:17;;;;;;;117.82;111.97;;;;;;;;;;5046069;28;20116;-57
2022/07/28 12:54:43;;;;;;;120.00;114.07;;;;;;;;;;5042565;28;20094;-58
2022/07/28 12:57:08;;;;;;;107.00;101.75;;;;;;;;;;5041680;28;20021;-57
2022/07/28 12:59:35;;;;;;;126.75;120.50;;;;;;;;;;5042467;28;20033;-58
2022/07/28 13:02:01;;;;;;;130.60;124.18;;;;;;;;;;5042060;28;20032;-58
2022/07/28 13:04:42;;;;;;;109.07;103.70;;;;;;;;;;5039951;28;20108;-58
2022/07/28 13:07:10;;;;;;;92.75;88.20;;;;;;;;;;5042898;28;20028;-58
2022/07/28 13:09:44;;;;;;;134.95;128.30;;;;;;;;;;5042725;28;20116;-58
2022/07/28 13:12:13;;;;;;;90.43;85.97;;;;;;;;;;5041496;28;20044;-58
2022/07/28 13:14:43;;;;;;;86.55;82.28;;;;;;;;;;5033803;28;20037;-57
2022/07/28 13:17:10;;;;;;;79.47;75.50;;;;;;;;;;5037119;28;20347;-57
2022/07/28 13:19:35;;;;;;;88.00;83.60;;;;;;;;;;5044632;28;20077;-58
2022/07/28 13:22:01;;;;;;;80.18;76.20;;;;;;;;;;5039263;28;20030;-57
2022/07/28 13:24:28;;;;;;;81.38;77.32;;;;;;;;;;5042493;28;20037;-57
2022/07/28 13:26:55;;;;;;;82.63;78.53;;;;;;;;;;5041791;28;20093;-57
2022/07/28 13:29:21;;;;;;;74.50;70.80;;;;;;;;;;5045152;28;20688;-57
2022/07/28 13:31:47;;;;;;;72.05;68.47;;;;;;;;;;5042054;28;20040;-57
2022/07/28 13:34:12;;;;;;;70.25;66.65;;;;;;;;;;5041739;28;20285;-57
2022/07/28 13:36:38;;;;;;;74.78;70.85;;;;;;;;;;5040360;28;20029;-57
2022/07/28 13:39:04;;;;;;;71.93;68.32;;;;;;;;;;5041130;28;20025;-57
2022/07/28 13:41:30;;;;;;;65.50;62.10;;;;;;;;;;5044594;28;20469;-57
2022/07/28 13:43:57;;;;;;;67.47;64.07;;;;;;;;;;5039599;28;20040;-57
2022/07/28 13:46:24;;;;;;;66.95;63.55;;;;;;;;;;5036413;28;20044;-58
2022/07/28 13:48:50;;;;;;;60.28;57.28;;;;;;;;;;5037460;28;20032;-57
2022/07/28 13:51:15;;;;;;;62.35;59.25;;;;;;;;;;5040127;28;20043;-57
2022/07/28 13:53:40;;;;;;;59.22;56.28;;;;;;;;;;5039286;28;20029;-57
2022/07/28 13:56:07;;;;;;;62.33;59.22;;;;;;;;;;5046308;28;20627;-57
2022/07/28 13:58:33;;;;;;;65.85;62.55;;;;;;;;;;5045433;28;20515;-58
2022/07/28 14:00:59;;;;;;;70.55;67.05;;;;;;;;;;5040746;28;20025;-58
2022/07/28 14:03:26;;;;;;;64.30;61.10;;;;;;;;;;5042114;28;20463;-58
2022/07/28 14:05:51;;;;;;;64.88;61.65;;;;;;;;;;5042250;28;20021;-58
2022/07/28 14:08:20;;;;;;;64.00;60.80;;;;;;;;;;5043005;28;20024;-58
2022/07/28 14:10:51;;;;;;;65.15;61.88;;;;;;;;;;5040119;28;20402;-57
2022/07/28 14:13:18;;;;;;;61.35;58.25;;;;;;;;;;5037033;28;20508;-58
2022/07/28 14:15:44;;;;;;;61.42;58.33;;;;;;;;;;5036896;28;20116;-58
2022/07/28 14:18:09;;;;;;;67.15;63.80;;;;;;;;;;5039923;28;20422;-58
2022/07/28 14:20:35;;;;;;;69.28;65.68;;;;;;;;;;5037253;28;20135;-58